sensor_id;sensor_type;location;lat;lon;timestamp;temperature;humidity
23562;DHT22;11959;49.418;8.728;2023-05-07T00:01:38;14.50;99.90
23562;DHT22;11959;49.418;8.728;2023-05-07T00:04:04;14.40;99.90
23562;DHT22;11959;49.418;8.728;2023-05-07T00:06:30;14.40;99.90
23562;DHT22;11959;49.418;8.728;2023-05-07T00:08:57;14.40;99.90
23562;DHT22;11959;49.418;8.728;2023-05-07T00:11:23;14.40;99.90
23562;DHT22;11959;49.418;8.728;2023-05-07T00:13:48;14.40;99.90
23562;DHT22;11959;49.418;8.728;2023-05-07T00:16:14;14.40;99.90
23562;DHT22;11959;49.418;8.728;2023-05-07T00:18:40;14.40;99.90
23562;DHT22;11959;49.418;8.728;2023-05-07T00:21:05;14.40;99.90
23562;DHT22;11959;49.418;8.728;2023-05-07T00:23:31;14.40;99.90
23562;DHT22;11959;49.418;8.728;2023-05-07T00:25:57;14.40;99.90
23562;DHT22;11959;49.418;8.728;2023-05-07T00:28:22;14.40;99.90
23562;DHT22;11959;49.418;8.728;2023-05-07T00:30:48;14.40;99.90
23562;DHT22;11959;49.418;8.728;2023-05-07T00:33:13;14.40;99.90
23562;DHT22;11959;49.418;8.728;2023-05-07T00:35:39;14.40;99.90
23562;DHT22;11959;49.418;8.728;2023-05-07T00:38:05;14.40;99.90
23562;DHT22;11959;49.418;8.728;2023-05-07T00:40:30;14.40;99.90
23562;DHT22;11959;49.418;8.728;2023-05-07T00:42:56;14.40;99.90
23562;DHT22;11959;49.418;8.728;2023-05-07T00:45:26;14.30;99.90
23562;DHT22;11959;49.418;8.728;2023-05-07T00:47:57;14.30;99.90
23562;DHT22;11959;49.418;8.728;2023-05-07T00:50:23;14.30;99.90
23562;DHT22;11959;49.418;8.728;2023-05-07T00:52:49;14.30;99.90
23562;DHT22;11959;49.418;8.728;2023-05-07T00:55:15;14.30;99.90
23562;DHT22;11959;49.418;8.728;2023-05-07T00:57:41;14.30;99.90
23562;DHT22;11959;49.418;8.728;2023-05-07T01:00:08;14.30;99.90
23562;DHT22;11959;49.418;8.728;2023-05-07T01:02:35;14.30;99.90
23562;DHT22;11959;49.418;8.728;2023-05-07T01:05:02;14.20;99.90
23562;DHT22;11959;49.418;8.728;2023-05-07T01:07:29;14.20;99.90
23562;DHT22;11959;49.418;8.728;2023-05-07T01:09:56;14.20;99.90
23562;DHT22;11959;49.418;8.728;2023-05-07T01:12:23;14.20;99.90
23562;DHT22;11959;49.418;8.728;2023-05-07T01:14:49;14.20;99.90
23562;DHT22;11959;49.418;8.728;2023-05-07T01:17:16;14.20;99.90
23562;DHT22;11959;49.418;8.728;2023-05-07T01:19:42;14.10;99.90
23562;DHT22;11959;49.418;8.728;2023-05-07T01:22:09;14.10;99.90
23562;DHT22;11959;49.418;8.728;2023-05-07T01:24:37;14.00;99.90
23562;DHT22;11959;49.418;8.728;2023-05-07T01:27:03;14.00;99.90
23562;DHT22;11959;49.418;8.728;2023-05-07T01:29:29;14.00;99.90
23562;DHT22;11959;49.418;8.728;2023-05-07T01:31:59;13.90;99.90
23562;DHT22;11959;49.418;8.728;2023-05-07T01:34:27;13.90;99.90
23562;DHT22;11959;49.418;8.728;2023-05-07T01:36:54;13.90;99.90
23562;DHT22;11959;49.418;8.728;2023-05-07T01:39:23;13.90;99.90
23562;DHT22;11959;49.418;8.728;2023-05-07T01:41:49;13.80;99.90
23562;DHT22;11959;49.418;8.728;2023-05-07T01:44:16;13.80;99.90
23562;DHT22;11959;49.418;8.728;2023-05-07T01:46:43;13.70;99.90
23562;DHT22;11959;49.418;8.728;2023-05-07T01:49:09;13.70;99.90
23562;DHT22;11959;49.418;8.728;2023-05-07T01:51:35;13.70;99.90
23562;DHT22;11959;49.418;8.728;2023-05-07T01:54:01;13.70;99.90
23562;DHT22;11959;49.418;8.728;2023-05-07T01:56:27;13.80;99.90
23562;DHT22;11959;49.418;8.728;2023-05-07T01:58:52;13.70;99.90
23562;DHT22;11959;49.418;8.728;2023-05-07T02:01:18;13.70;99.90
23562;DHT22;11959;49.418;8.728;2023-05-07T02:03:44;13.70;99.90
23562;DHT22;11959;49.418;8.728;2023-05-07T02:06:09;13.70;99.90
23562;DHT22;11959;49.418;8.728;2023-05-07T02:08:35;13.70;99.90
23562;DHT22;11959;49.418;8.728;2023-05-07T02:11:01;13.70;99.90
23562;DHT22;11959;49.418;8.728;2023-05-07T02:13:29;13.70;99.90
23562;DHT22;11959;49.418;8.728;2023-05-07T02:15:56;13.60;99.90
23562;DHT22;11959;49.418;8.728;2023-05-07T02:18:21;13.60;99.90
23562;DHT22;11959;49.418;8.728;2023-05-07T02:20:47;13.60;99.90
23562;DHT22;11959;49.418;8.728;2023-05-07T02:23:12;13.60;99.90
23562;DHT22;11959;49.418;8.728;2023-05-07T02:25:38;13.60;99.90
23562;DHT22;11959;49.418;8.728;2023-05-07T02:28:04;13.60;99.90
23562;DHT22;11959;49.418;8.728;2023-05-07T02:30:29;13.50;99.90
23562;DHT22;11959;49.418;8.728;2023-05-07T02:32:55;13.50;99.90
23562;DHT22;11959;49.418;8.728;2023-05-07T02:35:20;13.50;99.90
23562;DHT22;11959;49.418;8.728;2023-05-07T02:37:46;13.50;99.90
23562;DHT22;11959;49.418;8.728;2023-05-07T02:40:12;13.50;99.90
23562;DHT22;11959;49.418;8.728;2023-05-07T02:42:37;13.50;99.90
23562;DHT22;11959;49.418;8.728;2023-05-07T02:45:03;13.50;99.90
23562;DHT22;11959;49.418;8.728;2023-05-07T02:47:29;13.50;99.90
23562;DHT22;11959;49.418;8.728;2023-05-07T02:49:55;13.50;99.90
23562;DHT22;11959;49.418;8.728;2023-05-07T02:52:21;13.50;99.90
23562;DHT22;11959;49.418;8.728;2023-05-07T02:54:47;13.50;99.90
23562;DHT22;11959;49.418;8.728;2023-05-07T02:57:12;13.50;99.90
23562;DHT22;11959;49.418;8.728;2023-05-07T02:59:38;13.40;99.90
23562;DHT22;11959;49.418;8.728;2023-05-07T03:02:04;13.40;99.90
23562;DHT22;11959;49.418;8.728;2023-05-07T03:04:29;13.40;99.90
23562;DHT22;11959;49.418;8.728;2023-05-07T03:06:55;13.40;99.90
23562;DHT22;11959;49.418;8.728;2023-05-07T03:09:21;13.40;99.90
23562;DHT22;11959;49.418;8.728;2023-05-07T03:11:46;13.30;99.90
23562;DHT22;11959;49.418;8.728;2023-05-07T03:14:12;13.30;99.90
23562;DHT22;11959;49.418;8.728;2023-05-07T03:16:38;13.30;99.90
23562;DHT22;11959;49.418;8.728;2023-05-07T03:19:05;13.30;99.90
23562;DHT22;11959;49.418;8.728;2023-05-07T03:21:32;13.30;99.90
23562;DHT22;11959;49.418;8.728;2023-05-07T03:23:59;13.30;99.90
23562;DHT22;11959;49.418;8.728;2023-05-07T03:26:25;13.30;99.90
23562;DHT22;11959;49.418;8.728;2023-05-07T03:28:51;13.40;99.90
23562;DHT22;11959;49.418;8.728;2023-05-07T03:31:17;13.40;99.90
23562;DHT22;11959;49.418;8.728;2023-05-07T03:33:56;13.40;99.90
23562;DHT22;11959;49.418;8.728;2023-05-07T03:36:23;13.40;99.90
23562;DHT22;11959;49.418;8.728;2023-05-07T03:38:49;13.40;99.90
23562;DHT22;11959;49.418;8.728;2023-05-07T03:41:15;13.30;99.90
23562;DHT22;11959;49.418;8.728;2023-05-07T03:43:41;13.30;99.90
23562;DHT22;11959;49.418;8.728;2023-05-07T03:46:07;13.30;99.90
23562;DHT22;11959;49.418;8.728;2023-05-07T03:48:33;13.30;99.90
23562;DHT22;11959;49.418;8.728;2023-05-07T03:50:59;13.40;99.90
23562;DHT22;11959;49.418;8.728;2023-05-07T03:53:24;13.30;99.90
23562;DHT22;11959;49.418;8.728;2023-05-07T03:55:50;13.30;99.90
23562;DHT22;11959;49.418;8.728;2023-05-07T03:58:16;13.30;99.90
23562;DHT22;11959;49.418;8.728;2023-05-07T04:00:42;13.40;99.90
23562;DHT22;11959;49.418;8.728;2023-05-07T04:03:08;13.30;99.90
23562;DHT22;11959;49.418;8.728;2023-05-07T04:05:33;13.30;99.90
23562;DHT22;11959;49.418;8.728;2023-05-07T04:07:59;13.20;99.90
23562;DHT22;11959;49.418;8.728;2023-05-07T04:10:25;13.20;99.90
23562;DHT22;11959;49.418;8.728;2023-05-07T04:12:51;13.20;99.90
23562;DHT22;11959;49.418;8.728;2023-05-07T04:15:17;13.20;99.90
23562;DHT22;11959;49.418;8.728;2023-05-07T04:17:42;13.20;99.90
23562;DHT22;11959;49.418;8.728;2023-05-07T04:20:09;13.20;99.90
23562;DHT22;11959;49.418;8.728;2023-05-07T04:22:36;13.20;99.90
23562;DHT22;11959;49.418;8.728;2023-05-07T04:25:03;13.20;99.90
23562;DHT22;11959;49.418;8.728;2023-05-07T04:27:28;13.20;99.90
23562;DHT22;11959;49.418;8.728;2023-05-07T04:29:54;13.20;99.90
23562;DHT22;11959;49.418;8.728;2023-05-07T04:32:21;13.20;99.90
23562;DHT22;11959;49.418;8.728;2023-05-07T04:34:48;13.30;99.90
23562;DHT22;11959;49.418;8.728;2023-05-07T04:37:14;13.40;99.90
23562;DHT22;11959;49.418;8.728;2023-05-07T04:39:43;13.40;99.90
23562;DHT22;11959;49.418;8.728;2023-05-07T04:42:15;13.50;99.90
23562;DHT22;11959;49.418;8.728;2023-05-07T04:44:42;13.50;99.90
23562;DHT22;11959;49.418;8.728;2023-05-07T04:47:08;13.60;99.90
23562;DHT22;11959;49.418;8.728;2023-05-07T04:49:34;13.60;99.90
23562;DHT22;11959;49.418;8.728;2023-05-07T04:51:59;13.70;99.90
23562;DHT22;11959;49.418;8.728;2023-05-07T04:54:25;13.70;99.90
23562;DHT22;11959;49.418;8.728;2023-05-07T04:56:51;13.80;99.90
23562;DHT22;11959;49.418;8.728;2023-05-07T04:59:17;13.80;99.90
23562;DHT22;11959;49.418;8.728;2023-05-07T05:01:43;13.90;99.90
23562;DHT22;11959;49.418;8.728;2023-05-07T05:04:09;14.00;99.90
23562;DHT22;11959;49.418;8.728;2023-05-07T05:06:35;14.00;99.90
23562;DHT22;11959;49.418;8.728;2023-05-07T05:09:01;14.10;99.90
23562;DHT22;11959;49.418;8.728;2023-05-07T05:11:27;14.10;99.90
23562;DHT22;11959;49.418;8.728;2023-05-07T05:13:52;14.10;99.90
23562;DHT22;11959;49.418;8.728;2023-05-07T05:16:18;14.20;99.90
23562;DHT22;11959;49.418;8.728;2023-05-07T05:18:44;14.20;99.90
23562;DHT22;11959;49.418;8.728;2023-05-07T05:21:10;14.30;99.90
23562;DHT22;11959;49.418;8.728;2023-05-07T05:23:35;14.30;99.90
23562;DHT22;11959;49.418;8.728;2023-05-07T05:26:01;14.30;99.90
23562;DHT22;11959;49.418;8.728;2023-05-07T05:28:26;14.30;99.90
23562;DHT22;11959;49.418;8.728;2023-05-07T05:30:53;14.30;99.90
23562;DHT22;11959;49.418;8.728;2023-05-07T05:33:19;14.40;99.90
23562;DHT22;11959;49.418;8.728;2023-05-07T05:35:45;14.40;99.90
23562;DHT22;11959;49.418;8.728;2023-05-07T05:38:10;14.40;99.90
23562;DHT22;11959;49.418;8.728;2023-05-07T05:40:36;14.50;99.90
23562;DHT22;11959;49.418;8.728;2023-05-07T05:43:02;14.60;99.90
23562;DHT22;11959;49.418;8.728;2023-05-07T05:45:27;14.70;99.90
23562;DHT22;11959;49.418;8.728;2023-05-07T05:47:56;14.70;99.90
23562;DHT22;11959;49.418;8.728;2023-05-07T05:50:25;14.70;99.90
23562;DHT22;11959;49.418;8.728;2023-05-07T05:52:52;14.80;99.90
23562;DHT22;11959;49.418;8.728;2023-05-07T05:55:17;14.90;99.90
23562;DHT22;11959;49.418;8.728;2023-05-07T05:57:43;14.80;99.90
23562;DHT22;11959;49.418;8.728;2023-05-07T06:00:09;14.90;99.90
23562;DHT22;11959;49.418;8.728;2023-05-07T06:02:40;14.90;99.90
23562;DHT22;11959;49.418;8.728;2023-05-07T06:05:10;15.00;99.90
23562;DHT22;11959;49.418;8.728;2023-05-07T06:07:36;15.10;99.90
23562;DHT22;11959;49.418;8.728;2023-05-07T06:10:03;15.20;99.90
23562;DHT22;11959;49.418;8.728;2023-05-07T06:12:29;15.30;99.90
23562;DHT22;11959;49.418;8.728;2023-05-07T06:14:55;15.40;99.90
23562;DHT22;11959;49.418;8.728;2023-05-07T06:17:20;15.50;99.90
23562;DHT22;11959;49.418;8.728;2023-05-07T06:19:46;15.70;99.90
23562;DHT22;11959;49.418;8.728;2023-05-07T06:22:12;15.80;99.90
23562;DHT22;11959;49.418;8.728;2023-05-07T06:24:37;15.90;99.90
23562;DHT22;11959;49.418;8.728;2023-05-07T06:27:03;16.00;99.90
23562;DHT22;11959;49.418;8.728;2023-05-07T06:29:29;16.00;99.90
23562;DHT22;11959;49.418;8.728;2023-05-07T06:31:57;16.10;99.90
23562;DHT22;11959;49.418;8.728;2023-05-07T06:34:31;16.20;99.90
23562;DHT22;11959;49.418;8.728;2023-05-07T06:36:57;16.20;99.90
23562;DHT22;11959;49.418;8.728;2023-05-07T06:39:22;16.30;99.90
23562;DHT22;11959;49.418;8.728;2023-05-07T06:41:48;16.30;99.90
23562;DHT22;11959;49.418;8.728;2023-05-07T06:44:14;16.40;99.90
23562;DHT22;11959;49.418;8.728;2023-05-07T06:46:40;16.50;99.90
23562;DHT22;11959;49.418;8.728;2023-05-07T06:49:06;16.60;99.90
23562;DHT22;11959;49.418;8.728;2023-05-07T06:51:32;16.70;99.90
23562;DHT22;11959;49.418;8.728;2023-05-07T06:53:58;16.80;99.90
23562;DHT22;11959;49.418;8.728;2023-05-07T06:56:24;16.90;99.90
23562;DHT22;11959;49.418;8.728;2023-05-07T06:58:50;17.00;99.90
23562;DHT22;11959;49.418;8.728;2023-05-07T07:01:16;17.00;99.90
23562;DHT22;11959;49.418;8.728;2023-05-07T07:03:42;17.20;99.90
23562;DHT22;11959;49.418;8.728;2023-05-07T07:06:08;17.30;99.90
23562;DHT22;11959;49.418;8.728;2023-05-07T07:08:34;17.40;99.90
23562;DHT22;11959;49.418;8.728;2023-05-07T07:11:00;17.50;99.90
23562;DHT22;11959;49.418;8.728;2023-05-07T07:13:26;17.60;99.90
23562;DHT22;11959;49.418;8.728;2023-05-07T07:15:52;17.70;99.90
23562;DHT22;11959;49.418;8.728;2023-05-07T07:18:18;17.80;99.90
23562;DHT22;11959;49.418;8.728;2023-05-07T07:20:44;17.80;99.90
23562;DHT22;11959;49.418;8.728;2023-05-07T07:23:10;17.90;99.90
23562;DHT22;11959;49.418;8.728;2023-05-07T07:25:35;17.90;99.90
23562;DHT22;11959;49.418;8.728;2023-05-07T07:28:01;18.00;99.90
23562;DHT22;11959;49.418;8.728;2023-05-07T07:30:27;18.20;99.90
23562;DHT22;11959;49.418;8.728;2023-05-07T07:32:53;18.30;99.90
23562;DHT22;11959;49.418;8.728;2023-05-07T07:35:20;18.40;99.90
23562;DHT22;11959;49.418;8.728;2023-05-07T07:37:47;18.60;99.90
23562;DHT22;11959;49.418;8.728;2023-05-07T07:40:15;18.80;99.90
23562;DHT22;11959;49.418;8.728;2023-05-07T07:42:41;18.90;99.90
23562;DHT22;11959;49.418;8.728;2023-05-07T07:45:07;19.00;99.90
23562;DHT22;11959;49.418;8.728;2023-05-07T07:47:33;19.20;99.90
23562;DHT22;11959;49.418;8.728;2023-05-07T07:49:58;19.20;99.90
23562;DHT22;11959;49.418;8.728;2023-05-07T07:52:24;19.30;99.90
23562;DHT22;11959;49.418;8.728;2023-05-07T07:54:50;19.40;99.90
23562;DHT22;11959;49.418;8.728;2023-05-07T07:57:16;19.40;99.90
23562;DHT22;11959;49.418;8.728;2023-05-07T07:59:41;19.50;99.90
23562;DHT22;11959;49.418;8.728;2023-05-07T08:02:08;19.70;99.90
23562;DHT22;11959;49.418;8.728;2023-05-07T08:04:34;19.70;99.90
23562;DHT22;11959;49.418;8.728;2023-05-07T08:07:00;19.80;99.90
23562;DHT22;11959;49.418;8.728;2023-05-07T08:09:26;19.90;99.90
23562;DHT22;11959;49.418;8.728;2023-05-07T08:11:53;20.00;99.90
23562;DHT22;11959;49.418;8.728;2023-05-07T08:14:19;20.10;99.90
23562;DHT22;11959;49.418;8.728;2023-05-07T08:16:44;20.10;99.90
23562;DHT22;11959;49.418;8.728;2023-05-07T08:19:10;20.20;99.90
23562;DHT22;11959;49.418;8.728;2023-05-07T08:21:39;20.20;99.90
23562;DHT22;11959;49.418;8.728;2023-05-07T08:24:05;20.20;99.90
23562;DHT22;11959;49.418;8.728;2023-05-07T08:26:31;20.20;99.90
23562;DHT22;11959;49.418;8.728;2023-05-07T08:28:57;20.40;99.90
23562;DHT22;11959;49.418;8.728;2023-05-07T08:31:22;20.50;99.90
23562;DHT22;11959;49.418;8.728;2023-05-07T08:33:49;20.70;99.90
23562;DHT22;11959;49.418;8.728;2023-05-07T08:36:15;20.80;99.90
23562;DHT22;11959;49.418;8.728;2023-05-07T08:38:41;20.90;99.90
23562;DHT22;11959;49.418;8.728;2023-05-07T08:41:10;21.00;99.90
23562;DHT22;11959;49.418;8.728;2023-05-07T08:43:37;21.00;99.90
23562;DHT22;11959;49.418;8.728;2023-05-07T08:46:04;21.10;99.90
23562;DHT22;11959;49.418;8.728;2023-05-07T08:48:31;21.10;99.90
23562;DHT22;11959;49.418;8.728;2023-05-07T08:50:58;21.10;99.90
23562;DHT22;11959;49.418;8.728;2023-05-07T08:53:24;21.10;99.90
23562;DHT22;11959;49.418;8.728;2023-05-07T08:55:51;21.10;99.90
23562;DHT22;11959;49.418;8.728;2023-05-07T08:58:18;21.10;99.90
23562;DHT22;11959;49.418;8.728;2023-05-07T09:00:43;21.20;99.90
23562;DHT22;11959;49.418;8.728;2023-05-07T09:03:09;21.10;99.90
23562;DHT22;11959;49.418;8.728;2023-05-07T09:05:38;21.10;99.90
23562;DHT22;11959;49.418;8.728;2023-05-07T09:08:04;21.10;99.90
23562;DHT22;11959;49.418;8.728;2023-05-07T09:10:33;21.20;99.90
23562;DHT22;11959;49.418;8.728;2023-05-07T09:12:59;21.30;99.90
23562;DHT22;11959;49.418;8.728;2023-05-07T09:15:25;21.40;99.90
23562;DHT22;11959;49.418;8.728;2023-05-07T09:17:51;21.60;99.90
23562;DHT22;11959;49.418;8.728;2023-05-07T09:20:17;21.80;99.90
23562;DHT22;11959;49.418;8.728;2023-05-07T09:22:42;22.00;99.90
23562;DHT22;11959;49.418;8.728;2023-05-07T09:25:09;22.20;99.90
23562;DHT22;11959;49.418;8.728;2023-05-07T09:27:35;22.30;99.90
23562;DHT22;11959;49.418;8.728;2023-05-07T09:30:07;22.30;99.90
23562;DHT22;11959;49.418;8.728;2023-05-07T09:32:38;22.30;99.90
23562;DHT22;11959;49.418;8.728;2023-05-07T09:35:06;22.30;99.90
23562;DHT22;11959;49.418;8.728;2023-05-07T09:37:41;22.30;99.90
23562;DHT22;11959;49.418;8.728;2023-05-07T09:40:13;22.30;99.90
23562;DHT22;11959;49.418;8.728;2023-05-07T09:42:46;22.30;99.90
23562;DHT22;11959;49.418;8.728;2023-05-07T09:45:12;22.30;99.90
23562;DHT22;11959;49.418;8.728;2023-05-07T09:47:39;22.30;99.90
23562;DHT22;11959;49.418;8.728;2023-05-07T09:50:08;22.30;99.90
23562;DHT22;11959;49.418;8.728;2023-05-07T09:52:36;22.40;99.90
23562;DHT22;11959;49.418;8.728;2023-05-07T09:55:02;22.60;99.90
23562;DHT22;11959;49.418;8.728;2023-05-07T09:57:29;22.70;99.90
23562;DHT22;11959;49.418;8.728;2023-05-07T09:59:56;22.80;99.90
23562;DHT22;11959;49.418;8.728;2023-05-07T10:02:23;22.80;99.90
23562;DHT22;11959;49.418;8.728;2023-05-07T10:04:51;22.90;99.90
23562;DHT22;11959;49.418;8.728;2023-05-07T10:07:18;23.10;99.90
23562;DHT22;11959;49.418;8.728;2023-05-07T10:09:46;23.30;99.90
23562;DHT22;11959;49.418;8.728;2023-05-07T10:12:12;23.50;99.90
23562;DHT22;11959;49.418;8.728;2023-05-07T10:14:38;23.40;99.90
23562;DHT22;11959;49.418;8.728;2023-05-07T10:17:05;23.50;99.90
23562;DHT22;11959;49.418;8.728;2023-05-07T10:19:31;23.60;99.90
23562;DHT22;11959;49.418;8.728;2023-05-07T10:22:05;23.70;99.90
23562;DHT22;11959;49.418;8.728;2023-05-07T10:24:35;23.80;99.90
23562;DHT22;11959;49.418;8.728;2023-05-07T10:27:09;23.90;99.90
23562;DHT22;11959;49.418;8.728;2023-05-07T10:29:49;23.90;99.90
23562;DHT22;11959;49.418;8.728;2023-05-07T10:32:42;24.00;99.90
23562;DHT22;11959;49.418;8.728;2023-05-07T10:35:17;24.10;99.90
23562;DHT22;11959;49.418;8.728;2023-05-07T10:37:45;24.10;99.90
23562;DHT22;11959;49.418;8.728;2023-05-07T10:40:12;24.30;99.90
23562;DHT22;11959;49.418;8.728;2023-05-07T10:42:37;24.30;99.90
23562;DHT22;11959;49.418;8.728;2023-05-07T10:45:21;24.40;99.90
23562;DHT22;11959;49.418;8.728;2023-05-07T10:48:10;24.50;99.90
23562;DHT22;11959;49.418;8.728;2023-05-07T10:50:37;24.50;99.90
23562;DHT22;11959;49.418;8.728;2023-05-07T10:55:51;24.70;99.90
23562;DHT22;11959;49.418;8.728;2023-05-07T10:58:28;24.60;99.90
23562;DHT22;11959;49.418;8.728;2023-05-07T11:00:57;24.80;99.90
23562;DHT22;11959;49.418;8.728;2023-05-07T11:03:24;24.80;98.70
23562;DHT22;11959;49.418;8.728;2023-05-07T11:11:18;25.10;98.60
23562;DHT22;11959;49.418;8.728;2023-05-07T11:13:48;25.10;98.40
23562;DHT22;11959;49.418;8.728;2023-05-07T11:16:24;25.30;98.60
23562;DHT22;11959;49.418;8.728;2023-05-07T11:18:54;25.40;97.60
23562;DHT22;11959;49.418;8.728;2023-05-07T11:21:40;25.40;97.00
23562;DHT22;11959;49.418;8.728;2023-05-07T11:24:08;25.30;96.60
23562;DHT22;11959;49.418;8.728;2023-05-07T11:26:45;25.10;96.90
23562;DHT22;11959;49.418;8.728;2023-05-07T11:29:12;24.90;96.60
23562;DHT22;11959;49.418;8.728;2023-05-07T11:31:38;25.00;97.20
23562;DHT22;11959;49.418;8.728;2023-05-07T11:34:04;25.10;96.10
23562;DHT22;11959;49.418;8.728;2023-05-07T11:36:32;25.20;96.00
23562;DHT22;11959;49.418;8.728;2023-05-07T11:38:58;25.30;96.30
23562;DHT22;11959;49.418;8.728;2023-05-07T11:41:33;25.40;95.50
23562;DHT22;11959;49.418;8.728;2023-05-07T11:44:00;25.50;95.20
23562;DHT22;11959;49.418;8.728;2023-05-07T11:46:27;25.40;94.90
23562;DHT22;11959;49.418;8.728;2023-05-07T11:48:53;25.10;95.60
23562;DHT22;11959;49.418;8.728;2023-05-07T11:51:23;25.00;96.30
23562;DHT22;11959;49.418;8.728;2023-05-07T11:53:50;24.80;96.70
23562;DHT22;11959;49.418;8.728;2023-05-07T11:56:17;24.70;97.40
23562;DHT22;11959;49.418;8.728;2023-05-07T11:58:44;24.70;97.60
23562;DHT22;11959;49.418;8.728;2023-05-07T12:01:11;24.60;97.80
23562;DHT22;11959;49.418;8.728;2023-05-07T12:03:40;24.70;98.00
23562;DHT22;11959;49.418;8.728;2023-05-07T12:06:08;24.80;97.60
23562;DHT22;11959;49.418;8.728;2023-05-07T12:08:37;24.90;97.80
23562;DHT22;11959;49.418;8.728;2023-05-07T12:11:03;25.10;98.30
23562;DHT22;11959;49.418;8.728;2023-05-07T12:13:32;25.20;97.80
23562;DHT22;11959;49.418;8.728;2023-05-07T12:15:58;25.30;97.40
23562;DHT22;11959;49.418;8.728;2023-05-07T12:18:26;25.30;97.60
23562;DHT22;11959;49.418;8.728;2023-05-07T12:20:53;25.20;97.50
23562;DHT22;11959;49.418;8.728;2023-05-07T12:23:19;25.00;97.40
23562;DHT22;11959;49.418;8.728;2023-05-07T12:25:45;24.90;97.80
23562;DHT22;11959;49.418;8.728;2023-05-07T12:28:15;24.80;98.40
23562;DHT22;11959;49.418;8.728;2023-05-07T12:30:47;24.80;98.90
23562;DHT22;11959;49.418;8.728;2023-05-07T12:33:17;24.90;98.90
23562;DHT22;11959;49.418;8.728;2023-05-07T12:35:43;25.00;98.60
23562;DHT22;11959;49.418;8.728;2023-05-07T12:38:14;25.20;98.70
23562;DHT22;11959;49.418;8.728;2023-05-07T12:40:45;25.30;98.20
23562;DHT22;11959;49.418;8.728;2023-05-07T12:43:18;25.30;97.70
23562;DHT22;11959;49.418;8.728;2023-05-07T12:45:45;25.30;97.00
23562;DHT22;11959;49.418;8.728;2023-05-07T12:48:12;25.20;97.80
23562;DHT22;11959;49.418;8.728;2023-05-07T12:50:38;25.10;98.00
23562;DHT22;11959;49.418;8.728;2023-05-07T12:53:04;25.20;98.20
23562;DHT22;11959;49.418;8.728;2023-05-07T12:55:41;25.30;97.40
23562;DHT22;11959;49.418;8.728;2023-05-07T12:58:08;25.10;98.30
23562;DHT22;11959;49.418;8.728;2023-05-07T13:00:38;25.10;97.70
23562;DHT22;11959;49.418;8.728;2023-05-07T13:03:04;25.00;97.60
23562;DHT22;11959;49.418;8.728;2023-05-07T13:05:31;25.00;98.20
23562;DHT22;11959;49.418;8.728;2023-05-07T13:07:57;25.10;99.00
23562;DHT22;11959;49.418;8.728;2023-05-07T13:10:23;25.00;98.80
23562;DHT22;11959;49.418;8.728;2023-05-07T13:12:49;25.10;97.90
23562;DHT22;11959;49.418;8.728;2023-05-07T13:15:15;25.10;98.20
23562;DHT22;11959;49.418;8.728;2023-05-07T13:17:41;25.00;98.40
23562;DHT22;11959;49.418;8.728;2023-05-07T13:20:08;25.00;97.80
23562;DHT22;11959;49.418;8.728;2023-05-07T13:22:34;24.80;98.00
23562;DHT22;11959;49.418;8.728;2023-05-07T13:24:59;24.80;98.30
23562;DHT22;11959;49.418;8.728;2023-05-07T13:27:25;24.60;98.70
23562;DHT22;11959;49.418;8.728;2023-05-07T13:29:51;24.50;98.70
23562;DHT22;11959;49.418;8.728;2023-05-07T13:32:17;24.40;98.70
23562;DHT22;11959;49.418;8.728;2023-05-07T13:34:42;24.40;99.10
23562;DHT22;11959;49.418;8.728;2023-05-07T13:37:08;24.30;99.00
23562;DHT22;11959;49.418;8.728;2023-05-07T13:39:34;24.20;99.10
23562;DHT22;11959;49.418;8.728;2023-05-07T13:41:59;24.10;99.20
23562;DHT22;11959;49.418;8.728;2023-05-07T13:44:26;24.10;99.50
23562;DHT22;11959;49.418;8.728;2023-05-07T13:46:52;24.00;99.90
23562;DHT22;11959;49.418;8.728;2023-05-07T13:49:17;23.90;99.90
23562;DHT22;11959;49.418;8.728;2023-05-07T13:51:43;23.90;99.90
23562;DHT22;11959;49.418;8.728;2023-05-07T13:54:09;23.80;99.90
23562;DHT22;11959;49.418;8.728;2023-05-07T13:56:34;23.70;99.90
23562;DHT22;11959;49.418;8.728;2023-05-07T13:59:00;23.60;99.90
23562;DHT22;11959;49.418;8.728;2023-05-07T14:01:26;23.40;99.90
23562;DHT22;11959;49.418;8.728;2023-05-07T14:03:52;23.30;99.90
23562;DHT22;11959;49.418;8.728;2023-05-07T14:06:18;23.20;99.90
23562;DHT22;11959;49.418;8.728;2023-05-07T14:08:43;23.00;99.90
23562;DHT22;11959;49.418;8.728;2023-05-07T14:11:09;22.50;99.90
23562;DHT22;11959;49.418;8.728;2023-05-07T14:13:35;21.70;99.90
23562;DHT22;11959;49.418;8.728;2023-05-07T14:16:00;21.40;99.90
23562;DHT22;11959;49.418;8.728;2023-05-07T14:18:26;21.40;99.90
23562;DHT22;11959;49.418;8.728;2023-05-07T14:20:54;21.20;99.90
23562;DHT22;11959;49.418;8.728;2023-05-07T14:23:20;21.00;99.90
23562;DHT22;11959;49.418;8.728;2023-05-07T14:25:50;20.80;99.90
23562;DHT22;11959;49.418;8.728;2023-05-07T14:28:16;20.50;99.90
23562;DHT22;11959;49.418;8.728;2023-05-07T14:30:42;20.20;99.90
23562;DHT22;11959;49.418;8.728;2023-05-07T14:33:07;20.00;99.90
23562;DHT22;11959;49.418;8.728;2023-05-07T14:35:34;19.70;99.90
23562;DHT22;11959;49.418;8.728;2023-05-07T14:38:03;19.60;99.90
23562;DHT22;11959;49.418;8.728;2023-05-07T14:40:30;19.40;99.90
23562;DHT22;11959;49.418;8.728;2023-05-07T14:42:56;19.40;99.90
23562;DHT22;11959;49.418;8.728;2023-05-07T14:45:24;19.20;99.90
23562;DHT22;11959;49.418;8.728;2023-05-07T14:47:50;19.10;99.90
23562;DHT22;11959;49.418;8.728;2023-05-07T14:50:16;18.80;99.90
23562;DHT22;11959;49.418;8.728;2023-05-07T14:52:42;18.40;99.90
23562;DHT22;11959;49.418;8.728;2023-05-07T14:55:08;18.20;99.90
23562;DHT22;11959;49.418;8.728;2023-05-07T14:57:34;18.00;99.90
23562;DHT22;11959;49.418;8.728;2023-05-07T15:00:03;17.80;99.90
23562;DHT22;11959;49.418;8.728;2023-05-07T15:02:32;17.70;99.90
23562;DHT22;11959;49.418;8.728;2023-05-07T15:04:59;17.60;99.90
23562;DHT22;11959;49.418;8.728;2023-05-07T15:07:25;17.60;99.90
23562;DHT22;11959;49.418;8.728;2023-05-07T15:09:51;17.50;99.90
23562;DHT22;11959;49.418;8.728;2023-05-07T15:12:17;17.30;99.90
23562;DHT22;11959;49.418;8.728;2023-05-07T15:14:43;17.30;99.90
23562;DHT22;11959;49.418;8.728;2023-05-07T15:17:09;17.20;99.90
23562;DHT22;11959;49.418;8.728;2023-05-07T15:19:35;17.10;99.90
23562;DHT22;11959;49.418;8.728;2023-05-07T15:22:01;17.00;99.90
23562;DHT22;11959;49.418;8.728;2023-05-07T15:24:30;16.90;99.90
23562;DHT22;11959;49.418;8.728;2023-05-07T15:26:56;16.80;99.90
23562;DHT22;11959;49.418;8.728;2023-05-07T15:29:24;16.70;99.90
23562;DHT22;11959;49.418;8.728;2023-05-07T15:31:50;16.70;99.90
23562;DHT22;11959;49.418;8.728;2023-05-07T15:34:17;16.70;99.90
23562;DHT22;11959;49.418;8.728;2023-05-07T15:36:43;16.70;99.90